createdAt,value
2023-05-24T00:02:14.715Z,87.78
2023-05-24T00:04:42.716Z,88.09
2023-05-24T00:07:10.633Z,87.60
2023-05-24T00:09:39.370Z,87.47
2023-05-24T00:12:07.644Z,88.24
2023-05-24T00:14:35.546Z,87.61
2023-05-24T00:17:03.615Z,86.89
2023-05-24T00:19:33.013Z,86.80
2023-05-24T00:22:01.133Z,87.76
2023-05-24T00:24:29.571Z,88.50
2023-05-24T00:26:57.629Z,88.43
2023-05-24T00:29:25.390Z,89.15
2023-05-24T00:31:54.605Z,89.94
2023-05-24T00:34:22.470Z,91.88
2023-05-24T00:36:51.806Z,91.45
2023-05-24T00:39:19.707Z,91.77
2023-05-24T00:41:47.584Z,90.19
2023-05-24T00:44:15.618Z,89.54
2023-05-24T00:46:43.961Z,88.14
2023-05-24T00:49:12.288Z,86.74
2023-05-24T00:51:40.648Z,86.15
2023-05-24T00:54:09.953Z,85.81
2023-05-24T00:56:38.448Z,86.25
2023-05-24T00:59:07.229Z,85.97
2023-05-24T01:01:35.636Z,85.44
2023-05-24T01:04:05.981Z,85.46
2023-05-24T01:06:46.220Z,85.66
2023-05-24T01:09:23.273Z,86.02
2023-05-24T01:12:05.680Z,86.82
2023-05-24T01:14:45.020Z,87.75
2023-05-24T01:17:20.595Z,87.16
2023-05-24T01:19:55.320Z,86.93
2023-05-24T01:22:54.322Z,87.77
2023-05-24T01:25:41.818Z,87.55
2023-05-24T01:28:13.594Z,86.53
2023-05-24T01:30:42.956Z,87.44
2023-05-24T01:33:10.916Z,86.95
2023-05-24T01:35:42.490Z,86.40
2023-05-24T01:38:12.172Z,86.13
2023-05-24T01:40:42.657Z,87.03
2023-05-24T01:43:17.377Z,87.75
2023-05-24T01:45:53.913Z,88.68
2023-05-24T01:48:32.431Z,87.14
2023-05-24T01:51:01.833Z,87.98
2023-05-24T01:53:42.399Z,88.09
2023-05-24T01:56:12.815Z,88.07
2023-05-24T01:58:43.999Z,88.17
2023-05-24T02:01:13.345Z,87.75
2023-05-24T02:03:41.718Z,86.96
2023-05-24T02:06:10.944Z,86.50
2023-05-24T02:08:40.898Z,86.07
2023-05-24T02:11:08.867Z,85.08
2023-05-24T02:13:36.763Z,85.47
2023-05-24T02:16:06.482Z,84.58
2023-05-24T02:18:34.752Z,83.25
2023-05-24T02:21:03.231Z,82.80
2023-05-24T02:23:31.938Z,84.13
2023-05-24T02:26:01.408Z,85.10
2023-05-24T02:28:32.170Z,85.84
2023-05-24T02:31:00.550Z,85.09
2023-05-24T02:33:30.231Z,84.59
2023-05-24T02:35:58.837Z,84.47
2023-05-24T02:38:26.689Z,84.93
2023-05-24T02:40:54.454Z,85.45
2023-05-24T02:43:22.368Z,84.80
2023-05-24T02:45:50.587Z,84.76
2023-05-24T02:48:18.802Z,85.23
2023-05-24T02:50:47.955Z,85.50
2023-05-24T02:53:15.853Z,85.01
2023-05-24T02:55:46.662Z,85.21
2023-05-24T02:58:17.820Z,86.48
2023-05-24T03:00:48.872Z,85.77
2023-05-24T03:03:19.358Z,85.88
2023-05-24T03:05:48.749Z,84.39
2023-05-24T03:08:16.733Z,85.10
2023-05-24T03:10:44.843Z,87.00
2023-05-24T03:13:14.621Z,87.41
2023-05-24T03:15:43.913Z,86.55
2023-05-24T03:18:11.689Z,85.64
2023-05-24T03:20:41.526Z,86.83
2023-05-24T03:23:11.747Z,86.38
2023-05-24T03:25:39.629Z,85.87
2023-05-24T03:28:07.666Z,85.27
2023-05-24T03:30:35.729Z,85.73
2023-05-24T03:33:03.853Z,85.93
2023-05-24T03:35:32.356Z,85.79
2023-05-24T03:38:00.541Z,86.22
2023-05-24T03:40:33.340Z,85.29
2023-05-24T03:43:06.233Z,86.27
2023-05-24T03:45:54.801Z,87.92
2023-05-24T03:48:22.610Z,87.54
2023-05-24T03:50:52.310Z,87.66
2023-05-24T03:53:23.141Z,87.26
2023-05-24T03:55:53.009Z,88.21
2023-05-24T03:58:21.074Z,87.72
2023-05-24T04:00:49.024Z,87.48
2023-05-24T04:03:17.339Z,86.75
2023-05-24T04:05:45.808Z,84.76
2023-05-24T04:08:15.211Z,85.70
2023-05-24T04:10:43.657Z,86.26
2023-05-24T04:13:14.658Z,87.42
2023-05-24T04:15:43.700Z,86.70
2023-05-24T04:18:12.803Z,87.87
2023-05-24T04:20:41.621Z,87.23
2023-05-24T04:23:10.690Z,87.58
2023-05-24T04:25:38.979Z,87.34
2023-05-24T04:28:07.626Z,87.19
2023-05-24T04:30:36.968Z,87.52
2023-05-24T04:33:05.457Z,86.41
2023-05-24T04:35:34.120Z,85.40
2023-05-24T04:38:02.035Z,86.31
2023-05-24T04:40:30.110Z,86.32
2023-05-24T04:42:57.928Z,86.25
2023-05-24T04:45:26.938Z,85.88
2023-05-24T04:47:56.317Z,86.08
2023-05-24T04:50:25.024Z,83.82
2023-05-24T04:52:52.800Z,85.23
2023-05-24T04:55:21.185Z,85.89
2023-05-24T04:57:49.300Z,85.85
2023-05-24T05:00:18.163Z,85.75
2023-05-24T05:02:47.178Z,85.91
2023-05-24T05:05:16.620Z,86.41
2023-05-24T05:07:45.308Z,84.91
2023-05-24T05:10:13.108Z,83.97
2023-05-24T05:12:41.228Z,85.23
2023-05-24T05:15:10.404Z,83.84
2023-05-24T05:17:38.255Z,83.89
2023-05-24T05:20:07.775Z,84.34
2023-05-24T05:22:37.010Z,84.08
2023-05-24T05:25:05.374Z,82.54
2023-05-24T05:27:33.321Z,83.14
2023-05-24T05:30:01.213Z,83.36
2023-05-24T05:32:29.130Z,82.04
2023-05-24T05:34:57.136Z,79.96
2023-05-24T05:37:25.915Z,77.97
2023-05-24T05:39:55.286Z,79.65
2023-05-24T05:42:23.063Z,80.06
2023-05-24T05:44:52.549Z,80.47
2023-05-24T05:47:20.454Z,79.06
2023-05-24T05:49:48.214Z,79.02
2023-05-24T05:52:15.991Z,78.09
2023-05-24T05:54:44.261Z,77.82
2023-05-24T05:57:16.613Z,77.20
2023-05-24T05:59:45.514Z,76.90
2023-05-24T06:02:13.839Z,76.44
2023-05-24T06:04:41.731Z,73.86
2023-05-24T06:07:09.545Z,74.92
2023-05-24T06:09:37.956Z,75.88
2023-05-24T06:12:09.115Z,76.28
2023-05-24T06:14:44.755Z,76.15
2023-05-24T06:17:15.430Z,73.72
2023-05-24T06:19:48.281Z,77.00
2023-05-24T06:22:16.366Z,75.32
2023-05-24T06:24:44.534Z,76.35
2023-05-24T06:27:12.253Z,75.99
2023-05-24T06:29:42.611Z,75.65
2023-05-24T06:32:11.824Z,75.04
2023-05-24T06:34:39.794Z,76.08
2023-05-24T06:37:10.957Z,73.50
2023-05-24T06:39:39.500Z,75.58
2023-05-24T06:42:07.783Z,75.08
2023-05-24T06:44:38.532Z,74.54
2023-05-24T06:47:09.464Z,74.65
2023-05-24T06:49:39.057Z,73.45
2023-05-24T06:52:12.003Z,72.00
2023-05-24T06:54:43.402Z,74.04
2023-05-24T06:57:18.601Z,73.79
2023-05-24T06:59:52.738Z,73.61
2023-05-24T07:02:27.421Z,73.05
2023-05-24T07:04:56.155Z,72.91
2023-05-24T07:07:34.621Z,74.25
2023-05-24T07:10:02.747Z,73.61
2023-05-24T07:12:33.308Z,73.01
2023-05-24T07:15:01.368Z,73.24
2023-05-24T07:17:31.010Z,72.83
2023-05-24T07:19:59.178Z,72.17
2023-05-24T07:22:29.042Z,72.18
2023-05-24T07:24:56.993Z,71.86
2023-05-24T07:27:25.216Z,72.34
2023-05-24T07:29:54.282Z,70.90
2023-05-24T07:32:22.580Z,70.20
2023-05-24T07:34:52.534Z,69.94
2023-05-24T07:37:20.451Z,69.33
2023-05-24T07:39:48.679Z,70.10
2023-05-24T07:42:16.496Z,71.45
2023-05-24T07:44:44.584Z,68.18
2023-05-24T07:47:12.798Z,70.74
2023-05-24T07:49:40.791Z,68.23
2023-05-24T07:52:10.008Z,68.23
2023-05-24T07:54:38.297Z,69.04
2023-05-24T07:57:11.526Z,68.72
2023-05-24T07:59:39.776Z,68.96
2023-05-24T08:02:11.229Z,65.44
2023-05-24T08:04:39.298Z,65.08
2023-05-24T08:07:09.455Z,65.22
2023-05-24T08:09:40.353Z,66.42
2023-05-24T08:12:08.859Z,63.19
2023-05-24T08:14:36.751Z,63.48
2023-05-24T08:17:05.759Z,65.83
2023-05-24T08:19:36.011Z,65.25
2023-05-24T08:22:05.936Z,64.59
2023-05-24T08:24:33.981Z,65.02
2023-05-24T08:27:04.874Z,66.40
2023-05-24T08:29:32.784Z,65.47
2023-05-24T08:32:02.517Z,63.00
2023-05-24T08:34:30.913Z,62.83
2023-05-24T08:36:58.860Z,64.20
2023-05-24T08:39:26.908Z,63.09
2023-05-24T08:42:08.632Z,63.25
2023-05-24T08:44:46.752Z,64.33
2023-05-24T08:47:15.244Z,64.47
2023-05-24T08:49:43.529Z,62.31
2023-05-24T08:52:13.206Z,62.94
2023-05-24T08:54:42.989Z,65.53
2023-05-24T08:57:12.546Z,64.49
2023-05-24T08:59:43.211Z,64.17
2023-05-24T09:02:14.677Z,63.80
2023-05-24T09:04:44.632Z,63.07
2023-05-24T09:07:14.880Z,61.54
2023-05-24T09:09:45.367Z,60.89
2023-05-24T09:12:32.544Z,60.56
2023-05-24T09:15:09.248Z,63.22
2023-05-24T09:17:38.941Z,60.80
2023-05-24T09:20:10.208Z,61.86
2023-05-24T09:22:41.010Z,61.50
2023-05-24T09:25:10.426Z,59.41
2023-05-24T09:27:38.859Z,58.35
2023-05-24T09:30:14.039Z,58.25
2023-05-24T09:32:42.690Z,56.90
2023-05-24T09:35:11.957Z,57.21
2023-05-24T09:37:40.512Z,59.27
2023-05-24T09:40:20.344Z,59.34
2023-05-24T09:42:51.626Z,59.45
2023-05-24T09:45:22.362Z,58.79
2023-05-24T09:47:50.259Z,58.57
2023-05-24T09:50:18.788Z,55.98
2023-05-24T09:52:47.245Z,55.60
2023-05-24T09:55:16.749Z,55.97
2023-05-24T09:57:46.092Z,54.88
2023-05-24T10:00:17.681Z,53.14
2023-05-24T10:02:53.551Z,53.04
2023-05-24T10:05:22.522Z,53.07
2023-05-24T10:07:50.490Z,52.52
2023-05-24T10:10:19.148Z,52.87
2023-05-24T10:12:48.072Z,50.94
2023-05-24T10:15:16.870Z,50.06
2023-05-24T10:17:44.994Z,50.01
2023-05-24T10:20:15.908Z,48.24
2023-05-24T10:22:46.857Z,51.07
2023-05-24T10:25:21.738Z,50.43
2023-05-24T10:27:52.669Z,51.81
2023-05-24T10:30:32.588Z,51.54
2023-05-24T10:33:02.448Z,52.80
2023-05-24T10:35:33.743Z,50.46
2023-05-24T10:38:07.116Z,50.46
2023-05-24T10:40:42.048Z,50.60
2023-05-24T10:43:10.434Z,50.02
2023-05-24T10:45:39.746Z,49.54
2023-05-24T10:48:25.656Z,49.29
2023-05-24T10:50:55.148Z,49.12
2023-05-24T10:53:27.247Z,49.24
2023-05-24T10:55:56.453Z,48.60
2023-05-24T10:58:30.814Z,47.88
2023-05-24T11:00:58.609Z,48.52
2023-05-24T11:03:33.406Z,48.34
2023-05-24T11:06:03.018Z,48.98
2023-05-24T11:08:33.136Z,47.39
2023-05-24T11:11:19.231Z,47.23
2023-05-24T11:13:50.783Z,48.68
2023-05-24T11:16:34.922Z,47.39
2023-05-24T11:19:13.477Z,47.97
2023-05-24T11:21:45.233Z,48.10
2023-05-24T11:24:13.595Z,46.87
2023-05-24T11:26:41.776Z,47.74
2023-05-24T11:29:09.781Z,47.30
2023-05-24T11:31:43.250Z,45.31
2023-05-24T11:34:12.534Z,47.28
2023-05-24T11:36:41.192Z,47.22
2023-05-24T11:39:10.822Z,47.19
2023-05-24T11:41:40.868Z,46.46
2023-05-24T11:44:10.520Z,45.95
2023-05-24T11:46:40.194Z,45.96
2023-05-24T11:49:08.390Z,43.71
2023-05-24T11:51:37.674Z,44.44
2023-05-24T11:54:06.027Z,46.76
2023-05-24T11:56:35.441Z,47.28
2023-05-24T11:59:13.200Z,46.40
2023-05-24T12:01:43.326Z,44.59
2023-05-24T12:04:12.309Z,44.94
2023-05-24T12:06:41.646Z,45.21
2023-05-24T12:09:13.419Z,45.05
2023-05-24T12:11:44.726Z,46.42
2023-05-24T12:14:14.494Z,44.01
2023-05-24T12:16:43.900Z,46.11
2023-05-24T12:19:31.753Z,45.60
2023-05-24T12:22:02.147Z,46.26
2023-05-24T12:24:32.566Z,46.60
2023-05-24T12:27:07.199Z,45.33
2023-05-24T12:29:36.590Z,44.79
2023-05-24T12:32:05.849Z,45.34
2023-05-24T12:34:34.042Z,44.96
2023-05-24T12:37:02.409Z,44.73
2023-05-24T12:39:34.402Z,44.02
2023-05-24T12:42:05.078Z,44.94
2023-05-24T12:44:35.727Z,44.81
2023-05-24T12:47:06.618Z,44.21
2023-05-24T12:49:35.607Z,44.02
2023-05-24T12:52:03.676Z,46.04
2023-05-24T12:54:32.658Z,43.72
2023-05-24T12:57:02.658Z,43.77
2023-05-24T12:59:32.361Z,45.28
2023-05-24T13:02:04.324Z,46.73
2023-05-24T13:04:33.911Z,47.32
2023-05-24T13:07:04.575Z,45.56
2023-05-24T13:09:34.459Z,47.39
2023-05-24T13:12:05.301Z,46.34
2023-05-24T13:14:34.516Z,46.59
2023-05-24T13:17:04.386Z,46.68
2023-05-24T13:19:32.965Z,45.19
2023-05-24T13:22:01.305Z,43.61
2023-05-24T13:24:29.272Z,44.33
2023-05-24T13:26:58.232Z,42.34
2023-05-24T13:32:00.850Z,42.13
2023-05-24T13:34:28.739Z,42.83
2023-05-24T13:36:57.429Z,42.17
2023-05-24T13:39:25.274Z,41.68
2023-05-24T13:41:53.432Z,43.56
2023-05-24T13:44:22.739Z,45.04
2023-05-24T13:46:50.930Z,46.30
2023-05-24T13:49:20.997Z,46.68
2023-05-24T13:51:49.412Z,48.55
2023-05-24T13:54:17.642Z,48.01
2023-05-24T13:56:45.584Z,46.64
2023-05-24T13:59:14.198Z,47.22
2023-05-24T14:01:42.541Z,46.46
2023-05-24T14:04:10.867Z,47.48
2023-05-24T14:06:40.390Z,48.43
2023-05-24T14:09:08.985Z,47.81
2023-05-24T14:11:37.592Z,48.80
2023-05-24T14:16:37.413Z,50.82
2023-05-24T14:19:05.720Z,49.32
2023-05-24T14:21:33.665Z,50.69
2023-05-24T14:24:04.337Z,50.50
2023-05-24T14:26:32.245Z,51.04
2023-05-24T14:29:00.878Z,51.76
2023-05-24T14:31:28.948Z,52.73
2023-05-24T14:33:56.932Z,52.51
2023-05-24T14:36:24.775Z,51.53
2023-05-24T14:38:52.872Z,52.31
2023-05-24T14:41:22.950Z,52.04
2023-05-24T14:43:51.081Z,52.05
2023-05-24T14:46:20.024Z,51.79
2023-05-24T14:48:47.908Z,52.01
2023-05-24T14:51:15.621Z,51.39
2023-05-24T14:53:43.413Z,48.78
2023-05-24T14:56:13.710Z,48.10
2023-05-24T14:58:43.151Z,50.74
2023-05-24T15:01:11.578Z,49.98
2023-05-24T15:03:40.504Z,50.56
2023-05-24T15:06:08.904Z,51.62
2023-05-24T15:08:36.805Z,52.75
2023-05-24T15:11:06.005Z,51.55
2023-05-24T15:13:33.881Z,51.89
2023-05-24T15:16:02.991Z,52.33
2023-05-24T15:18:32.100Z,51.63
2023-05-24T15:21:01.590Z,52.50
2023-05-24T15:23:29.788Z,51.09
2023-05-24T15:25:57.656Z,51.92
2023-05-24T15:28:26.763Z,52.52
2023-05-24T15:30:54.901Z,52.44
2023-05-24T15:33:26.466Z,51.78
2023-05-24T15:35:57.286Z,52.78
2023-05-24T15:38:25.646Z,52.40
2023-05-24T15:40:53.718Z,51.96
2023-05-24T15:43:22.143Z,53.94
2023-05-24T15:45:50.944Z,51.56
2023-05-24T15:48:18.663Z,52.85
2023-05-24T15:51:25.614Z,52.34
2023-05-24T15:53:37.100Z,51.76
2023-05-24T15:56:05.301Z,51.77
2023-05-24T15:58:33.261Z,53.67
2023-05-24T16:01:04.196Z,54.03
2023-05-24T16:03:32.227Z,54.01
2023-05-24T16:06:01.908Z,54.02
2023-05-24T16:08:30.020Z,54.38
2023-05-24T16:10:58.298Z,53.93
2023-05-24T16:13:26.360Z,53.14
2023-05-24T16:15:54.513Z,53.86
2023-05-24T16:18:23.694Z,53.63
2023-05-24T16:20:52.552Z,51.67
2023-05-24T16:23:23.129Z,52.89
2023-05-24T16:25:51.340Z,53.76
2023-05-24T16:28:23.796Z,54.19
2023-05-24T16:30:56.055Z,55.08
2023-05-24T16:33:25.050Z,54.99
2023-05-24T16:35:56.498Z,55.22
2023-05-24T16:38:26.747Z,54.00
2023-05-24T16:40:54.950Z,55.04
2023-05-24T16:43:23.581Z,55.48
2023-05-24T16:45:51.857Z,56.11
2023-05-24T16:48:21.849Z,55.25
2023-05-24T16:50:50.552Z,55.46
2023-05-24T16:53:20.385Z,55.04
2023-05-24T16:55:53.672Z,54.71
2023-05-24T16:58:22.253Z,54.40
2023-05-24T17:00:51.325Z,53.25
2023-05-24T17:03:22.235Z,53.99
2023-05-24T17:05:50.415Z,53.05
2023-05-24T17:08:19.229Z,53.69
2023-05-24T17:10:47.297Z,52.95
2023-05-24T17:13:16.955Z,52.06
2023-05-24T17:15:45.066Z,53.76
2023-05-24T17:18:12.853Z,54.49
2023-05-24T17:20:40.658Z,55.13
2023-05-24T17:23:08.875Z,55.17
2023-05-24T17:25:37.230Z,54.36
2023-05-24T17:28:05.295Z,54.94
2023-05-24T17:30:35.153Z,54.89
2023-05-24T17:33:03.428Z,54.60
2023-05-24T17:35:31.259Z,53.94
2023-05-24T17:37:59.330Z,54.89
2023-05-24T17:40:27.379Z,56.21
2023-05-24T17:42:55.242Z,56.61
2023-05-24T17:45:23.805Z,55.87
2023-05-24T17:47:53.564Z,56.16
2023-05-24T17:50:22.347Z,55.30
2023-05-24T17:52:50.451Z,56.51
2023-05-24T17:55:19.306Z,55.60
2023-05-24T17:57:47.077Z,56.08
2023-05-24T18:00:16.945Z,56.77
2023-05-24T18:02:48.713Z,57.65
2023-05-24T18:05:18.866Z,55.86
2023-05-24T18:07:46.879Z,57.54
2023-05-24T18:10:15.187Z,57.95
2023-05-24T18:12:43.576Z,58.16
2023-05-24T18:15:12.867Z,57.59
2023-05-24T18:17:40.780Z,58.07
2023-05-24T18:20:09.970Z,57.25
2023-05-24T18:22:39.623Z,58.79
2023-05-24T18:25:09.098Z,57.83
2023-05-24T18:27:37.275Z,59.41
2023-05-24T18:30:07.772Z,59.26
2023-05-24T18:32:36.703Z,59.75
2023-05-24T18:35:05.576Z,59.76
2023-05-24T18:37:33.488Z,60.30
2023-05-24T18:40:03.407Z,59.91
2023-05-24T18:42:32.146Z,60.46
2023-05-24T18:44:59.886Z,59.38
2023-05-24T18:47:30.913Z,59.67
2023-05-24T18:49:59.615Z,60.27
2023-05-24T18:52:28.646Z,59.29
2023-05-24T18:54:58.652Z,59.37
2023-05-24T18:57:29.987Z,58.71
2023-05-24T18:59:57.800Z,59.15
2023-05-24T19:02:26.041Z,58.90
2023-05-24T19:04:53.992Z,59.22
2023-05-24T19:07:21.786Z,59.00
2023-05-24T19:09:49.655Z,59.13
2023-05-24T19:12:17.481Z,58.82
2023-05-24T19:14:46.646Z,59.22
2023-05-24T19:17:15.707Z,58.46
2023-05-24T19:19:43.652Z,58.90
2023-05-24T19:22:11.363Z,59.96
2023-05-24T19:24:39.306Z,59.06
2023-05-24T19:27:09.034Z,59.29
2023-05-24T19:29:38.301Z,58.85
2023-05-24T19:32:08.312Z,59.48
2023-05-24T19:34:37.469Z,60.61
2023-05-24T19:37:06.291Z,59.01
2023-05-24T19:39:34.011Z,59.63
2023-05-24T19:42:02.637Z,59.25
2023-05-24T19:44:31.336Z,59.56
2023-05-24T19:46:59.340Z,60.23
2023-05-24T19:49:29.108Z,60.29
2023-05-24T19:51:57.050Z,60.72
2023-05-24T19:54:25.472Z,61.73
2023-05-24T19:56:55.128Z,61.84
2023-05-24T19:59:23.353Z,61.78
2023-05-24T20:01:51.537Z,62.13
2023-05-24T20:04:20.645Z,62.07
2023-05-24T20:06:50.224Z,61.76
2023-05-24T20:09:19.154Z,62.46
2023-05-24T20:11:47.803Z,62.74
2023-05-24T20:14:16.305Z,62.36
2023-05-24T20:16:44.283Z,63.23
2023-05-24T20:19:12.517Z,62.56
2023-05-24T20:21:40.358Z,63.19
2023-05-24T20:24:09.759Z,62.21
2023-05-24T20:26:37.850Z,62.57
2023-05-24T20:29:05.860Z,62.87
2023-05-24T20:31:34.782Z,62.61
2023-05-24T20:34:02.718Z,63.06
2023-05-24T20:36:32.197Z,63.30
2023-05-24T20:39:00.001Z,63.43
2023-05-24T20:41:30.462Z,63.92
2023-05-24T20:43:58.423Z,63.65
2023-05-24T20:46:26.872Z,63.42
2023-05-24T20:48:56.169Z,64.10
2023-05-24T20:51:24.851Z,63.31
2023-05-24T20:53:53.290Z,63.59
2023-05-24T20:56:23.230Z,64.04
2023-05-24T20:58:54.257Z,63.32
2023-05-24T21:01:25.154Z,62.89
2023-05-24T21:03:53.886Z,63.94
2023-05-24T21:06:21.891Z,63.46
2023-05-24T21:08:50.168Z,64.33
2023-05-24T21:11:18.424Z,64.65
2023-05-24T21:13:46.381Z,64.32
2023-05-24T21:16:16.178Z,64.30
2023-05-24T21:18:43.994Z,64.65
2023-05-24T21:21:12.168Z,65.23
2023-05-24T21:23:40.650Z,65.85
2023-05-24T21:26:08.565Z,65.89
2023-05-24T21:28:36.599Z,66.42
2023-05-24T21:31:05.701Z,66.67
2023-05-24T21:33:36.209Z,66.54
2023-05-24T21:36:04.476Z,67.05
2023-05-24T21:38:32.449Z,67.48
2023-05-24T21:41:00.270Z,67.90
2023-05-24T21:43:28.616Z,67.38
2023-05-24T21:45:56.981Z,67.95
2023-05-24T21:48:25.024Z,67.80
2023-05-24T21:50:54.327Z,68.09
2023-05-24T21:53:22.579Z,68.85
2023-05-24T21:55:51.765Z,68.56
2023-05-24T21:58:19.877Z,68.65
2023-05-24T22:00:48.312Z,68.77
2023-05-24T22:03:19.268Z,69.54
2023-05-24T22:05:47.472Z,69.36
2023-05-24T22:08:17.001Z,69.94
2023-05-24T22:10:45.557Z,70.03
2023-05-24T22:13:14.024Z,69.98
2023-05-24T22:15:42.522Z,70.94
2023-05-24T22:18:10.660Z,71.13
2023-05-24T22:20:38.745Z,71.04
2023-05-24T22:23:06.671Z,72.02
2023-05-24T22:25:36.785Z,71.94
2023-05-24T22:28:05.421Z,72.80
2023-05-24T22:30:35.198Z,73.06
2023-05-24T22:33:05.168Z,73.87
2023-05-24T22:35:33.707Z,73.98
2023-05-24T22:38:01.691Z,74.42
2023-05-24T22:40:29.688Z,74.69
2023-05-24T22:42:58.791Z,74.89
2023-05-24T22:45:26.876Z,73.55
2023-05-24T22:47:58.477Z,74.91
2023-05-24T22:50:27.154Z,75.27
2023-05-24T22:52:56.680Z,75.28
2023-05-24T22:55:25.198Z,75.01
2023-05-24T22:57:53.458Z,75.51
2023-05-24T23:00:23.610Z,76.25
2023-05-24T23:02:51.651Z,76.35
2023-05-24T23:05:21.607Z,76.72
2023-05-24T23:07:49.711Z,76.76
2023-05-24T23:10:17.529Z,77.24
2023-05-24T23:12:46.135Z,77.37
2023-05-24T23:15:16.706Z,77.35
2023-05-24T23:17:52.536Z,77.55
2023-05-24T23:20:20.907Z,77.65
2023-05-24T23:22:48.912Z,77.72
2023-05-24T23:25:16.645Z,77.75
2023-05-24T23:27:45.187Z,78.24
2023-05-24T23:30:13.369Z,78.34
2023-05-24T23:32:41.802Z,78.25
2023-05-24T23:35:14.055Z,78.18
2023-05-24T23:37:43.117Z,79.05
2023-05-24T23:40:16.912Z,78.79
2023-05-24T23:42:51.059Z,78.63
2023-05-24T23:45:20.824Z,79.52
2023-05-24T23:47:51.046Z,79.66
2023-05-24T23:50:22.876Z,80.02
2023-05-24T23:52:55.485Z,80.84
2023-05-24T23:55:29.172Z,80.24
2023-05-24T23:57:57.256Z,80.69
